Time;durP1;ratioP1;P1;durP2;ratioP2;P2;SDS_P1;SDS_P2;PMS_P1;PMS_P2;Temp;Humidity;BMP_temperature;BMP_pressure;BME280_temperature;BME280_humidity;BME280_pressure;Samples;Min_cycle;Max_cycle;Signal;HPM_P1;HPM_P2
2023/07/20 00:03:39;;;;;;;2.30;2.20;;;16.50;99.90;;;;;;6050365;23;20382;-89
2023/07/20 00:06:08;;;;;;;2.40;2.30;;;16.50;99.90;;;;;;6011938;23;20026;-88
2023/07/20 00:08:37;;;;;;;2.33;2.22;;;16.50;99.90;;;;;;6014423;23;20026;-89
2023/07/20 00:11:09;;;;;;;2.35;2.25;;;16.40;99.90;;;;;;6011227;23;20050;-87
2023/07/20 00:13:37;;;;;;;2.42;2.33;;;16.40;99.90;;;;;;6012105;23;20026;-89
2023/07/20 00:16:06;;;;;;;2.10;2.00;;;16.40;99.90;;;;;;6010804;23;20030;-87
2023/07/20 00:18:32;;;;;;;2.40;2.30;;;16.20;99.90;;;;;;6009960;23;20030;-86
2023/07/20 00:21:01;;;;;;;2.10;2.00;;;16.30;99.90;;;;;;6018633;23;20380;-87
2023/07/20 00:23:27;;;;;;;2.60;2.50;;;16.30;99.90;;;;;;6010269;23;20022;-87
2023/07/20 00:26:18;;;;;;;2.22;2.13;;;16.10;99.90;;;;;;6010343;23;20030;-87
2023/07/20 00:28:52;;;;;;;2.28;2.17;;;16.30;99.90;;;;;;6007629;23;20030;-87
2023/07/20 00:31:21;;;;;;;;;;;16.30;99.90;;;;;;6010329;23;20022;-87
2023/07/20 00:33:49;;;;;;;2.22;2.13;;;16.10;99.90;;;;;;6032653;23;19928;-87
2023/07/20 00:36:15;;;;;;;2.47;2.38;;;16.20;99.90;;;;;;6010165;23;20145;-86
2023/07/20 00:38:44;;;;;;;2.35;2.25;;;16.00;99.90;;;;;;6010423;23;20086;-87
2023/07/20 00:41:29;;;;;;;2.38;2.28;;;16.30;99.90;;;;;;6033262;23;20026;-85
2023/07/20 00:43:56;;;;;;;2.67;2.53;;;16.20;99.90;;;;;;6032552;23;20400;-87
2023/07/20 00:46:27;;;;;;;2.72;2.58;;;16.20;99.90;;;;;;6032650;23;20023;-86
2023/07/20 00:48:53;;;;;;;2.85;2.65;;;16.20;99.90;;;;;;6032433;23;20023;-86
2023/07/20 00:51:24;;;;;;;2.90;2.70;;;16.30;99.90;;;;;;6008994;23;20058;-86
2023/07/20 00:53:50;;;;;;;2.92;2.72;;;16.20;99.90;;;;;;6032839;23;20074;-86
2023/07/20 00:56:25;;;;;;;2.80;2.65;;;16.10;99.90;;;;;;6008897;23;20030;-85
2023/07/20 00:58:55;;;;;;;2.65;2.53;;;16.20;99.90;;;;;;6007902;23;20054;-87
2023/07/20 01:01:24;;;;;;;2.60;2.50;;;16.00;99.90;;;;;;6033041;23;20026;-84
2023/07/20 01:03:50;;;;;;;2.67;2.53;;;16.10;99.90;;;;;;6008161;23;20023;-86
2023/07/20 01:06:36;;;;;;;2.75;2.60;;;16.10;99.90;;;;;;6010514;23;20077;-88
2023/07/20 01:09:13;;;;;;;2.78;2.60;;;16.00;99.90;;;;;;6010844;23;20034;-87
2023/07/20 01:12:07;;;;;;;2.53;2.42;;;16.10;99.90;;;;;;6011559;23;20034;-88
2023/07/20 01:14:36;;;;;;;2.55;2.45;;;15.90;99.90;;;;;;6034920;23;20125;-88
2023/07/20 01:17:05;;;;;;;2.42;2.33;;;16.00;99.90;;;;;;6009115;23;20026;-87
2023/07/20 01:19:30;;;;;;;2.58;2.47;;;16.00;99.90;;;;;;6034195;23;20019;-89
2023/07/20 01:22:06;;;;;;;2.55;2.45;;;15.90;99.90;;;;;;6031609;23;20306;-89
2023/07/20 01:25:10;;;;;;;2.60;2.50;;;15.90;99.90;;;;;;6011289;23;20023;-89
2023/07/20 01:27:51;;;;;;;2.58;2.47;;;16.00;99.90;;;;;;6011438;23;20033;-88
2023/07/20 01:30:45;;;;;;;2.45;2.35;;;15.90;99.90;;;;;;6011512;23;20026;-88
2023/07/20 01:33:19;;;;;;;2.60;2.50;;;15.70;99.90;;;;;;6011949;23;20108;-89
2023/07/20 01:35:52;;;;;;;2.50;2.40;;;15.80;99.90;;;;;;6035289;23;20030;-90
2023/07/20 01:38:32;;;;;;;2.60;2.50;;;15.70;99.90;;;;;;6011317;23;20026;-89
2023/07/20 01:40:59;;;;;;;2.50;2.40;;;15.80;99.90;;;;;;6036454;23;20045;-92
2023/07/20 01:43:24;;;;;;;2.60;2.50;;;15.90;99.90;;;;;;6036193;23;20466;-91
2023/07/20 01:45:50;;;;;;;2.58;2.47;;;15.90;99.90;;;;;;6012728;23;20027;-90
2023/07/20 01:48:16;;;;;;;2.53;2.42;;;15.80;99.90;;;;;;6011844;23;20062;-90
2023/07/20 01:50:42;;;;;;;2.50;2.40;;;15.80;99.90;;;;;;6012212;23;20022;-89
2023/07/20 01:53:11;;;;;;;2.50;2.40;;;15.80;99.90;;;;;;6035806;23;20476;-90
2023/07/20 01:55:39;;;;;;;2.50;2.40;;;15.70;99.90;;;;;;6012026;23;20019;-92
2023/07/20 01:58:06;;;;;;;2.35;2.25;;;15.70;99.90;;;;;;6036023;23;20023;-90
2023/07/20 02:00:32;;;;;;;2.40;2.30;;;15.90;99.90;;;;;;6036001;23;20019;-91
2023/07/20 02:03:03;;;;;;;2.42;2.33;;;15.90;99.90;;;;;;6012445;23;20023;-89
2023/07/20 02:05:29;;;;;;;2.20;2.10;;;15.70;99.90;;;;;;6011756;23;20735;-90
2023/07/20 02:07:55;;;;;;;2.25;2.15;;;15.70;99.90;;;;;;6012205;23;20030;-90
2023/07/20 02:10:21;;;;;;;2.10;2.00;;;15.70;99.90;;;;;;6034840;23;20165;-88
2023/07/20 02:12:50;;;;;;;2.20;2.10;;;15.70;99.90;;;;;;6013425;23;20023;-93
2023/07/20 02:15:20;;;;;;;2.00;1.90;;;15.70;99.90;;;;;;6013759;23;20465;-93
2023/07/20 02:17:45;;;;;;;2.00;1.90;;;15.70;99.90;;;;;;6036737;23;20029;-90
2023/07/20 02:20:11;;;;;;;1.95;1.85;;;15.60;99.90;;;;;;6012433;23;20019;-92
2023/07/20 02:22:40;;;;;;;2.03;1.92;;;15.60;99.90;;;;;;6013105;23;20156;-89
2023/07/20 02:25:08;;;;;;;1.90;1.80;;;15.50;99.90;;;;;;6012139;23;20023;-93
2023/07/20 02:27:35;;;;;;;1.90;1.80;;;15.50;99.90;;;;;;6013575;23;20022;-93
2023/07/20 02:30:03;;;;;;;1.90;1.80;;;15.40;99.90;;;;;;6039022;23;20085;-93
2023/07/20 02:32:41;;;;;;;;;;;;;;;;;;;;;
2023/07/20 02:35:14;;;;;;;2.00;1.90;;;15.30;99.90;;;;;;6040307;23;20443;-93
2023/07/20 02:37:39;;;;;;;1.80;1.70;;;15.20;99.90;;;;;;6012699;23;20383;-90
2023/07/20 02:40:07;;;;;;;1.80;1.70;;;15.20;99.90;;;;;;6012163;23;20082;-90
2023/07/20 02:42:33;;;;;;;1.80;1.70;;;15.20;99.90;;;;;;6035277;23;20027;-90
2023/07/20 02:44:58;;;;;;;1.80;1.70;;;15.20;99.90;;;;;;6012055;23;20027;-89
2023/07/20 02:47:24;;;;;;;1.80;1.70;;;15.20;99.90;;;;;;6008957;23;20026;-89
2023/07/20 02:49:50;;;;;;;1.70;1.60;;;14.90;99.90;;;;;;6034626;23;20022;-89
2023/07/20 02:52:15;;;;;;;1.77;1.67;;;15.00;99.90;;;;;;6012780;23;20390;-89
2023/07/20 02:54:41;;;;;;;1.77;1.67;;;14.80;99.90;;;;;;6012388;23;20026;-91
2023/07/20 02:57:07;;;;;;;1.70;1.60;;;14.90;99.90;;;;;;6012587;23;20396;-91
2023/07/20 02:59:33;;;;;;;1.70;1.60;;;14.80;99.90;;;;;;6011658;23;20038;-91
2023/07/20 03:01:58;;;;;;;1.70;1.60;;;14.80;99.90;;;;;;6013454;23;20018;-91
2023/07/20 03:04:30;;;;;;;1.80;1.70;;;14.70;99.90;;;;;;6012748;23;20486;-92
2023/07/20 03:06:59;;;;;;;1.80;1.70;;;14.70;99.90;;;;;;6011788;23;20467;-89
2023/07/20 03:09:25;;;;;;;1.90;1.80;;;14.60;99.90;;;;;;6011293;23;20019;-89
2023/07/20 03:11:51;;;;;;;1.90;1.80;;;14.60;99.90;;;;;;6012232;23;20025;-91
2023/07/20 03:14:16;;;;;;;1.80;1.70;;;14.50;99.90;;;;;;6015093;23;20033;-92
2023/07/20 03:16:45;;;;;;;1.80;1.70;;;14.60;99.90;;;;;;6016140;23;20015;-95
2023/07/20 03:19:11;;;;;;;1.75;1.65;;;14.60;99.90;;;;;;6016082;23;20022;-92
2023/07/20 03:21:40;;;;;;;1.85;1.75;;;14.50;99.90;;;;;;6015853;23;20029;-91
2023/07/20 03:24:09;;;;;;;1.77;1.67;;;14.40;99.90;;;;;;6006763;23;20033;-91
2023/07/20 03:26:53;;;;;;;1.80;1.70;;;14.40;99.90;;;;;;6011880;23;20014;-94
2023/07/20 03:29:21;;;;;;;1.70;1.60;;;14.40;99.90;;;;;;6017284;23;20090;-90
2023/07/20 03:31:50;;;;;;;1.70;1.60;;;14.40;99.90;;;;;;6012723;23;20023;-91
2023/07/20 03:34:16;;;;;;;1.70;1.60;;;14.40;99.90;;;;;;6033411;23;20459;-89
2023/07/20 03:36:57;;;;;;;1.60;1.50;;;14.40;99.90;;;;;;6009623;23;20054;-89
2023/07/20 03:39:23;;;;;;;1.60;1.50;;;14.40;99.90;;;;;;6012170;23;20652;-90
2023/07/20 03:41:51;;;;;;;1.70;1.60;;;14.30;99.90;;;;;;6010070;23;20026;-90
2023/07/20 03:44:17;;;;;;;1.60;1.50;;;14.30;99.90;;;;;;6033034;23;20050;-90
2023/07/20 03:46:43;;;;;;;1.67;1.58;;;14.40;99.90;;;;;;6033307;23;20054;-89
2023/07/20 03:49:10;;;;;;;1.60;1.50;;;14.40;99.90;;;;;;6010836;23;20129;-89
2023/07/20 03:51:38;;;;;;;1.65;1.55;;;14.30;99.90;;;;;;6034297;23;20023;-89
2023/07/20 03:54:10;;;;;;;1.60;1.50;;;14.30;99.90;;;;;;6034603;23;20011;-90
2023/07/20 03:56:36;;;;;;;1.73;1.63;;;14.30;99.90;;;;;;6013916;23;20045;-90
2023/07/20 03:59:02;;;;;;;1.70;1.60;;;14.20;99.90;;;;;;6012095;23;20042;-93
2023/07/20 04:01:36;;;;;;;1.70;1.60;;;14.30;99.90;;;;;;6013745;23;20026;-91
2023/07/20 04:04:21;;;;;;;1.70;1.60;;;14.10;99.90;;;;;;6012387;23;20018;-91
2023/07/20 04:06:47;;;;;;;1.70;1.60;;;14.20;99.90;;;;;;6031588;23;20027;-91
2023/07/20 04:09:13;;;;;;;1.60;1.50;;;14.20;99.90;;;;;;6011726;23;20347;-90
2023/07/20 04:11:39;;;;;;;1.67;1.58;;;14.20;99.90;;;;;;6011478;23;20023;-90
2023/07/20 04:14:13;;;;;;;1.65;1.55;;;14.20;99.90;;;;;;6011267;23;20126;-89
2023/07/20 04:16:41;;;;;;;1.60;1.50;;;14.20;99.90;;;;;;6011162;23;20443;-91
2023/07/20 04:19:10;;;;;;;1.63;1.52;;;14.00;99.90;;;;;;6011126;23;20373;-90
2023/07/20 04:21:45;;;;;;;1.50;1.40;;;14.00;99.90;;;;;;6010520;23;20022;-89
2023/07/20 04:24:19;;;;;;;1.52;1.42;;;14.00;99.90;;;;;;6012641;23;20046;-92
2023/07/20 04:26:54;;;;;;;1.52;1.42;;;14.00;99.90;;;;;;6017143;23;20034;-95
2023/07/20 04:29:39;;;;;;;1.40;1.35;;;13.90;99.90;;;;;;6018879;23;20014;-94
2023/07/20 04:32:33;;;;;;;1.30;1.30;;;14.00;99.90;;;;;;6012158;23;20047;-89
2023/07/20 04:35:20;;;;;;;1.45;1.38;;;13.90;99.90;;;;;;5984367;23;20459;-90
2023/07/20 04:37:46;;;;;;;1.50;1.40;;;13.90;99.90;;;;;;6035049;23;20062;-88
2023/07/20 04:40:32;;;;;;;1.30;1.30;;;13.90;99.90;;;;;;6031280;23;20023;-89
2023/07/20 04:43:16;;;;;;;1.25;1.25;;;13.90;99.90;;;;;;5953473;23;20111;-93
2023/07/20 04:45:49;;;;;;;1.30;1.30;;;13.90;99.90;;;;;;5958330;23;20039;-90
2023/07/20 04:48:18;;;;;;;1.20;1.20;;;14.10;99.90;;;;;;5977613;23;20115;-88
2023/07/20 04:50:45;;;;;;;1.20;1.20;;;14.20;99.90;;;;;;5954767;23;20032;-92
2023/07/20 04:53:14;;;;;;;1.27;1.27;;;14.20;99.90;;;;;;5959512;23;20016;-90
2023/07/20 04:55:57;;;;;;;1.20;1.20;;;14.60;99.90;;;;;;6008965;23;20090;-90
2023/07/20 04:58:37;;;;;;;1.50;1.40;;;17.70;99.90;;;;;;6012842;23;20085;-89
2023/07/20 05:01:29;;;;;;;2.70;2.55;;;19.70;99.90;;;;;;6034770;23;20470;-93
2023/07/20 05:04:33;;;;;;;2.88;2.67;;;21.30;99.90;;;;;;6037290;23;20029;-91
2023/07/20 05:07:01;;;;;;;3.50;3.30;;;22.60;99.90;;;;;;6004073;23;20097;-92
2023/07/20 05:09:42;;;;;;;4.95;4.65;;;23.30;99.90;;;;;;5995642;23;20094;-91
2023/07/20 05:12:11;;;;;;;3.55;3.35;;;24.10;99.90;;;;;;6013764;23;20085;-91
2023/07/20 05:14:44;;;;;;;3.20;3.00;;;25.00;99.90;;;;;;6015440;23;20172;-91
2023/07/20 05:17:43;;;;;;;2.78;2.60;;;25.20;99.90;;;;;;6015053;23;20054;-88
2023/07/20 05:20:14;;;;;;;3.83;3.63;;;25.40;99.90;;;;;;6038582;23;20034;-89
2023/07/20 05:22:52;;;;;;;2.75;2.60;;;26.00;99.90;;;;;;6002720;23;20023;-92
2023/07/20 05:25:35;;;;;;;2.50;2.35;;;26.60;99.90;;;;;;6011210;23;20050;-92
2023/07/20 05:35:20;;;;;;;1.13;1.13;;;27.30;99.90;;;;;;6067398;23;20040;-91
2023/07/20 05:45:22;;;;;;;1.67;1.58;;;26.70;99.90;;;;;;6019172;23;20015;-92
2023/07/20 06:19:10;;;;;;;1.60;1.50;;;20.80;99.90;;;;;;5819567;24;20153;-96
2023/07/20 06:39:40;;;;;;;1.73;1.63;;;21.10;99.90;;;;;;5778221;24;20033;-90
2023/07/20 06:42:12;;;;;;;1.70;1.60;;;21.30;99.90;;;;;;5826117;24;20457;-87
2023/07/20 06:44:37;;;;;;;1.55;1.45;;;21.40;99.90;;;;;;5977048;23;20027;-87
2023/07/20 06:47:03;;;;;;;1.65;1.55;;;21.00;99.90;;;;;;6033230;23;20118;-87
2023/07/20 06:49:32;;;;;;;1.63;1.52;;;21.20;99.90;;;;;;6034423;23;20467;-86
2023/07/20 06:51:58;;;;;;;1.45;1.38;;;21.30;99.90;;;;;;6008854;23;20022;-88
2023/07/20 06:54:24;;;;;;;1.60;1.50;;;21.20;99.90;;;;;;6007190;23;20027;-87
2023/07/20 06:56:56;;;;;;;1.65;1.55;;;21.10;99.90;;;;;;6027685;23;20026;-86
2023/07/20 06:59:21;;;;;;;1.58;1.48;;;21.10;99.90;;;;;;6031938;23;20026;-87
2023/07/20 07:01:47;;;;;;;1.58;1.48;;;21.00;99.90;;;;;;6009442;23;20185;-88
2023/07/20 07:04:13;;;;;;;1.65;1.55;;;21.30;99.90;;;;;;6007931;23;20019;-90
2023/07/20 07:06:38;;;;;;;1.65;1.55;;;21.30;99.90;;;;;;6011120;23;20029;-87
2023/07/20 07:09:24;;;;;;;1.60;1.50;;;21.20;99.90;;;;;;6031904;23;20074;-88
2023/07/20 07:11:56;;;;;;;1.70;1.60;;;20.90;99.90;;;;;;6019209;23;20025;-88
2023/07/20 07:14:25;;;;;;;1.60;1.50;;;21.20;99.90;;;;;;6009263;23;20090;-88
2023/07/20 07:17:00;;;;;;;1.45;1.38;;;21.10;99.90;;;;;;6009227;23;20018;-88
2023/07/20 07:19:58;;;;;;;1.60;1.50;;;21.00;99.90;;;;;;6036662;23;20019;-92
2023/07/20 07:22:55;;;;;;;1.60;1.50;;;21.10;99.90;;;;;;6013066;23;20033;-94
2023/07/20 07:25:32;;;;;;;1.60;1.50;;;21.00;99.90;;;;;;6014874;23;20054;-88
2023/07/20 07:31:05;;;;;;;1.63;1.53;;;21.00;99.90;;;;;;6032137;23;20023;-92
2023/07/20 07:33:33;;;;;;;1.77;1.67;;;20.50;99.90;;;;;;6013658;23;20262;-90
2023/07/20 07:35:59;;;;;;;1.67;1.58;;;20.40;99.90;;;;;;6037347;23;20038;-91
2023/07/20 07:38:27;;;;;;;2.00;1.90;;;20.10;99.90;;;;;;6038815;23;20089;-90
2023/07/20 07:40:57;;;;;;;2.00;1.90;;;19.80;99.90;;;;;;6014198;23;20037;-90
2023/07/20 07:44:01;;;;;;;1.85;1.75;;;19.90;99.90;;;;;;6013007;23;20065;-91
2023/07/20 07:46:34;;;;;;;1.90;1.80;;;19.90;99.90;;;;;;5895875;24;20108;-92
2023/07/20 07:49:34;;;;;;;;;;;;;;;;;;;;;
2023/07/20 07:52:40;;;;;;;1.60;1.50;;;20.40;99.90;;;;;;5900574;24;20094;-95
2023/07/20 07:56:53;;;;;;;1.80;1.70;;;20.90;99.90;;;;;;5900396;24;20411;-94
2023/07/20 07:59:37;;;;;;;1.88;1.77;;;20.50;99.90;;;;;;5801611;24;20114;-92
2023/07/20 08:02:41;;;;;;;1.63;1.52;;;20.70;99.90;;;;;;5819220;24;20034;-94
2023/07/20 08:05:23;;;;;;;1.90;1.80;;;21.20;99.90;;;;;;5795753;24;20038;-94
2023/07/20 08:08:24;;;;;;;1.70;1.60;;;20.70;99.90;;;;;;5797027;24;20058;-94
2023/07/20 08:11:23;;;;;;;1.67;1.58;;;21.10;99.90;;;;;;5790295;24;20037;-94
2023/07/20 08:13:48;;;;;;;1.80;1.70;;;21.00;99.90;;;;;;5869661;24;20032;-93
2023/07/20 08:16:35;;;;;;;1.73;1.63;;;20.40;99.90;;;;;;5898009;24;20021;-92
2023/07/20 08:19:07;;;;;;;1.70;1.60;;;20.60;99.90;;;;;;5874290;24;20969;-94
2023/07/20 08:21:35;;;;;;;2.00;1.90;;;20.70;99.90;;;;;;6034441;23;20050;-92
2023/07/20 08:24:07;;;;;;;2.05;1.95;;;21.00;99.90;;;;;;6062957;23;20102;-91
2023/07/20 08:26:39;;;;;;;2.10;2.00;;;21.10;99.90;;;;;;6014750;23;20708;-95
2023/07/20 08:29:16;;;;;;;1.98;1.88;;;20.70;99.90;;;;;;6018090;23;20074;-93
2023/07/20 08:31:45;;;;;;;2.22;2.13;;;20.60;99.90;;;;;;6017126;23;20458;-94
2023/07/20 08:34:23;;;;;;;2.15;2.05;;;20.40;99.90;;;;;;6018247;23;20030;-91
2023/07/20 08:36:58;;;;;;;2.35;2.25;;;20.40;99.90;;;;;;6016141;23;20015;-92
2023/07/20 08:39:24;;;;;;;2.28;2.17;;;20.30;99.90;;;;;;6039212;23;20023;-91
2023/07/20 08:41:57;;;;;;;2.15;2.05;;;20.30;99.90;;;;;;6012067;23;20022;-92
2023/07/20 08:44:38;;;;;;;;;;;;;;;;;;;;;
2023/07/20 08:47:08;;;;;;;2.05;1.95;;;21.00;99.90;;;;;;6039834;23;20058;-91
2023/07/20 08:49:48;;;;;;;1.98;1.88;;;21.40;99.90;;;;;;6041042;23;20082;-94
2023/07/20 08:52:14;;;;;;;2.13;2.03;;;21.80;99.90;;;;;;6040435;23;20351;-92
2023/07/20 08:55:07;;;;;;;;;;;;;;;;;;;;;
2023/07/20 08:57:54;;;;;;;2.00;1.90;;;21.00;99.90;;;;;;6065438;23;20026;-94
2023/07/20 09:00:24;;;;;;;1.98;1.88;;;20.70;99.90;;;;;;6041196;23;20074;-93
2023/07/20 09:03:24;;;;;;;1.92;1.83;;;20.20;99.90;;;;;;6040667;23;20071;-92
2023/07/20 09:05:44;;;;;;;2.00;1.90;;;20.30;99.90;;;;;;6034932;23;20059;-92
2023/07/20 09:08:13;;;;;;;2.03;1.92;;;20.10;99.90;;;;;;6014466;23;20132;-93
2023/07/20 09:10:46;;;;;;;2.10;2.00;;;20.10;99.90;;;;;;6013923;23;20019;-93
2023/07/20 09:13:16;;;;;;;2.10;2.00;;;20.70;99.90;;;;;;6037815;23;20030;-92
2023/07/20 09:15:59;;;;;;;2.10;2.00;;;21.20;99.90;;;;;;6038691;23;20019;-93
2023/07/20 09:18:30;;;;;;;2.10;2.00;;;21.80;99.90;;;;;;6015129;23;20644;-91
2023/07/20 09:21:11;;;;;;;2.00;1.90;;;22.10;99.90;;;;;;6041482;23;20029;-93
2023/07/20 09:23:40;;;;;;;1.83;1.73;;;22.40;99.90;;;;;;6015919;23;20025;-93
2023/07/20 09:26:14;;;;;;;1.90;1.80;;;21.80;99.90;;;;;;6016332;23;20458;-91
2023/07/20 09:29:00;;;;;;;2.17;2.08;;;22.50;99.90;;;;;;6041139;23;20502;-94
2023/07/20 09:32:00;;;;;;;;;;;;;;;;;;;;;
2023/07/20 09:34:33;;;;;;;1.73;1.63;;;22.40;99.90;;;;;;6024699;23;20063;-88
2023/07/20 09:37:02;;;;;;;1.80;1.70;;;22.60;99.90;;;;;;5984950;23;20024;-88
2023/07/20 09:39:28;;;;;;;1.30;1.30;;;22.40;99.90;;;;;;5986009;23;20030;-88
2023/07/20 09:42:09;;;;;;;1.30;1.30;;;22.30;99.90;;;;;;5983589;23;20032;-91
2023/07/20 09:44:45;;;;;;;1.27;1.27;;;22.40;99.90;;;;;;5982592;23;20447;-91
2023/07/20 09:47:11;;;;;;;1.38;1.38;;;22.30;99.90;;;;;;6033109;23;20030;-92
2023/07/20 09:49:43;;;;;;;1.10;1.10;;;21.70;99.90;;;;;;5985491;23;20019;-88
2023/07/20 09:52:09;;;;;;;1.15;1.15;;;21.60;99.90;;;;;;5983790;23;20023;-88
2023/07/20 09:54:38;;;;;;;0.85;0.85;;;21.50;99.90;;;;;;5983564;23;20086;-88
2023/07/20 09:57:15;;;;;;;1.13;1.13;;;21.70;99.90;;;;;;5985649;23;20027;-89
2023/07/20 09:59:41;;;;;;;1.05;1.05;;;22.30;99.90;;;;;;6007564;23;20511;-90
2023/07/20 10:02:33;;;;;;;1.10;1.10;;;22.30;99.90;;;;;;5986106;23;20027;-96
2023/07/20 10:05:02;;;;;;;1.15;1.15;;;22.40;99.90;;;;;;5983546;23;20063;-89
2023/07/20 10:07:33;;;;;;;1.05;1.05;;;21.80;99.90;;;;;;5984758;23;20023;-90
2023/07/20 10:10:01;;;;;;;1.00;1.00;;;21.70;99.90;;;;;;5984399;23;20377;-90
2023/07/20 10:12:28;;;;;;;0.93;0.93;;;21.50;99.90;;;;;;6008041;23;20023;-89
2023/07/20 10:15:19;;;;;;;0.98;0.98;;;21.10;99.90;;;;;;5984784;23;20035;-88
2023/07/20 10:18:12;;;;;;;1.10;1.10;;;21.30;99.90;;;;;;6008691;23;20029;-88
2023/07/20 10:20:41;;;;;;;1.20;1.20;;;21.20;99.90;;;;;;5980770;23;20019;-88
2023/07/20 10:23:07;;;;;;;1.30;1.30;;;21.10;99.90;;;;;;5983949;23;20102;-90
2023/07/20 10:25:37;;;;;;;1.25;1.25;;;21.20;99.90;;;;;;5986183;23;20098;-89
2023/07/20 10:28:06;;;;;;;1.38;1.38;;;21.40;99.90;;;;;;5986708;23;20031;-92
2023/07/20 10:30:34;;;;;;;1.30;1.30;;;21.30;99.90;;;;;;5985262;23;20019;-88
2023/07/20 10:33:04;;;;;;;1.40;1.40;;;21.10;99.90;;;;;;6017317;23;20028;-86
2023/07/20 10:35:50;;;;;;;1.20;1.20;;;21.10;99.90;;;;;;6038593;23;20362;-89
2023/07/20 10:38:15;;;;;;;1.33;1.33;;;21.00;99.90;;;;;;6038122;23;20015;-90
2023/07/20 10:40:54;;;;;;;1.42;1.38;;;20.90;99.90;;;;;;6015439;23;20030;-89
2023/07/20 10:43:20;;;;;;;1.52;1.45;;;20.70;99.90;;;;;;6037771;23;20019;-89
2023/07/20 10:46:01;;;;;;;1.50;1.42;;;20.50;99.90;;;;;;6014588;23;20025;-91
2023/07/20 10:48:30;;;;;;;1.38;1.35;;;20.60;99.90;;;;;;6014751;23;20027;-86
2023/07/20 10:51:20;;;;;;;1.30;1.30;;;20.30;99.90;;;;;;6036787;23;20324;-87
2023/07/20 10:54:02;;;;;;;1.27;1.27;;;19.70;99.90;;;;;;6015306;23;20408;-89
2023/07/20 10:56:31;;;;;;;1.30;1.30;;;19.50;99.90;;;;;;6014968;23;20072;-91
2023/07/20 10:59:01;;;;;;;1.60;1.50;;;19.50;99.90;;;;;;6009255;23;20690;-87
2023/07/20 11:01:31;;;;;;;1.50;1.40;;;19.40;99.90;;;;;;6040426;23;20033;-92
2023/07/20 11:04:08;;;;;;;1.60;1.50;;;19.20;99.90;;;;;;6012596;23;20105;-88
2023/07/20 11:06:34;;;;;;;1.60;1.50;;;19.00;99.90;;;;;;6035074;23;20030;-87
2023/07/20 11:09:04;;;;;;;1.65;1.55;;;18.80;99.90;;;;;;6010501;23;20019;-88
2023/07/20 11:11:31;;;;;;;1.85;1.75;;;18.70;99.90;;;;;;6035239;23;20054;-88
2023/07/20 11:14:02;;;;;;;1.90;1.80;;;18.50;99.90;;;;;;6011280;23;20019;-87
2023/07/20 11:16:55;;;;;;;2.00;1.90;;;18.40;99.90;;;;;;6033956;23;20018;-89
2023/07/20 11:19:26;;;;;;;2.20;2.10;;;18.30;99.90;;;;;;6011573;23;20054;-87
2023/07/20 11:21:56;;;;;;;2.25;2.15;;;18.20;99.90;;;;;;6033744;23;20129;-89
2023/07/20 11:24:22;;;;;;;2.45;2.35;;;18.20;99.90;;;;;;6011119;23;20034;-89
2023/07/20 11:26:54;;;;;;;2.60;2.50;;;18.10;99.90;;;;;;6035938;23;20616;-89
2023/07/20 11:29:23;;;;;;;2.90;2.70;;;18.10;99.90;;;;;;6035368;23;20605;-87
2023/07/20 11:31:49;;;;;;;3.10;2.90;;;18.10;99.90;;;;;;6036819;23;20106;-89
2023/07/20 11:34:27;;;;;;;3.50;3.30;;;18.20;99.90;;;;;;6035705;23;20030;-89
2023/07/20 11:36:54;;;;;;;3.80;3.60;;;18.30;99.90;;;;;;6013546;23;20107;-91
2023/07/20 11:39:22;;;;;;;3.90;3.70;;;18.30;99.90;;;;;;6014653;23;20034;-90
2023/07/20 11:41:57;;;;;;;4.50;4.20;;;18.20;99.90;;;;;;6034677;23;20026;-86
2023/07/20 11:44:36;;;;;;;4.75;4.45;;;18.20;99.90;;;;;;6033487;23;20455;-87
2023/07/20 11:47:10;;;;;;;5.18;4.88;;;18.30;99.90;;;;;;6035131;23;20129;-91
2023/07/20 11:49:40;;;;;;;5.20;4.90;;;18.40;99.90;;;;;;6037540;23;20090;-90
2023/07/20 11:52:11;;;;;;;5.55;5.15;;;18.50;99.90;;;;;;6010297;23;20023;-89
2023/07/20 11:54:41;;;;;;;5.15;4.85;;;18.60;99.90;;;;;;6011024;23;20347;-92
2023/07/20 11:57:10;;;;;;;5.53;5.13;;;18.70;99.90;;;;;;6034465;23;20019;-90
2023/07/20 11:59:35;;;;;;;5.85;5.45;;;18.90;99.90;;;;;;6033312;23;20029;-89
2023/07/20 12:02:03;;;;;;;6.03;5.63;;;19.20;99.90;;;;;;6012041;23;20098;-91
2023/07/20 12:04:30;;;;;;;5.72;5.32;;;19.50;99.90;;;;;;6031450;23;20034;-91
2023/07/20 12:06:56;;;;;;;5.68;5.28;;;19.60;99.90;;;;;;6007306;23;20435;-91
2023/07/20 12:09:23;;;;;;;5.65;5.25;;;19.90;99.90;;;;;;6009059;23;20023;-91
2023/07/20 12:11:54;;;;;;;5.05;4.75;;;20.40;99.90;;;;;;6031115;23;20096;-91
2023/07/20 12:14:20;;;;;;;4.38;4.07;;;21.00;99.90;;;;;;6003934;23;20026;-91
2023/07/20 12:16:55;;;;;;;3.78;3.58;;;21.30;99.90;;;;;;6029616;23;20153;-90
2023/07/20 12:19:30;;;;;;;3.30;3.10;;;21.70;99.90;;;;;;6001499;23;20030;-92
2023/07/20 12:21:59;;;;;;;2.50;2.40;;;21.40;99.90;;;;;;6008210;23;20023;-90
2023/07/20 12:27:27;;;;;;;1.90;1.80;;;21.40;99.90;;;;;;6005829;23;20027;-91
2023/07/20 12:30:02;;;;;;;2.00;1.90;;;21.20;99.90;;;;;;6030993;23;20384;-92
2023/07/20 12:32:28;;;;;;;1.88;1.77;;;21.40;99.90;;;;;;6007787;23;20085;-90
2023/07/20 12:34:54;;;;;;;1.80;1.70;;;21.50;99.90;;;;;;6008667;23;20443;-90
2023/07/20 12:37:23;;;;;;;1.75;1.65;;;21.50;99.90;;;;;;6011513;23;20073;-91
2023/07/20 12:39:57;;;;;;;1.75;1.65;;;22.00;99.90;;;;;;6012572;23;20394;-93
2023/07/20 12:42:32;;;;;;;1.70;1.60;;;22.90;99.90;;;;;;6011036;23;20019;-90
2023/07/20 12:45:04;;;;;;;1.80;1.70;;;23.40;99.90;;;;;;6011735;23;20027;-91
2023/07/20 12:47:57;;;;;;;1.70;1.60;;;23.60;99.90;;;;;;6030421;23;20022;-91
2023/07/20 12:50:23;;;;;;;1.30;1.30;;;24.10;99.90;;;;;;6033701;23;20026;-88
2023/07/20 12:52:55;;;;;;;1.08;1.08;;;23.90;99.90;;;;;;6010793;23;20022;-92
2023/07/20 12:55:21;;;;;;;0.90;0.90;;;24.10;99.90;;;;;;6035503;23;20049;-88
2023/07/20 12:57:50;;;;;;;0.30;0.30;;;24.70;99.90;;;;;;6011714;23;20015;-86
2023/07/20 13:00:16;;;;;;;0.30;0.30;;;23.80;99.90;;;;;;6012946;23;20026;-90
2023/07/20 13:02:43;;;;;;;0.60;0.60;;;23.00;99.90;;;;;;6012747;23;20579;-89
2023/07/20 13:05:09;;;;;;;0.40;0.40;;;22.60;99.90;;;;;;6013616;23;20549;-88
2023/07/20 13:07:37;;;;;;;0.52;0.52;;;22.30;99.90;;;;;;6013318;23;20027;-90
2023/07/20 13:10:04;;;;;;;0.30;0.30;;;22.10;99.90;;;;;;6037836;23;20035;-93
2023/07/20 13:12:32;;;;;;;0.80;0.80;;;22.00;99.90;;;;;;6038228;23;20023;-90
2023/07/20 13:15:02;;;;;;;0.90;0.90;;;21.90;99.90;;;;;;6035726;23;20022;-87
2023/07/20 13:17:28;;;;;;;0.40;0.40;;;21.80;99.90;;;;;;6039219;23;20019;-90
2023/07/20 13:19:55;;;;;;;0.95;0.95;;;21.80;99.90;;;;;;6037448;23;20023;-93
2023/07/20 13:22:20;;;;;;;0.95;0.95;;;22.20;99.90;;;;;;6015415;23;20027;-89
2023/07/20 13:24:50;;;;;;;0.95;0.95;;;22.00;99.90;;;;;;6038966;23;20054;-89
2023/07/20 13:27:17;;;;;;;0.95;0.95;;;21.80;99.90;;;;;;6038938;23;20077;-91
2023/07/20 13:29:44;;;;;;;0.98;0.98;;;21.70;99.90;;;;;;6014611;23;20027;-87
2023/07/20 13:32:14;;;;;;;1.10;1.10;;;21.40;99.90;;;;;;6036397;23;20023;-90
2023/07/20 13:34:39;;;;;;;0.95;0.95;;;21.60;99.90;;;;;;6013797;23;20439;-89
2023/07/20 13:37:05;;;;;;;1.10;1.10;;;22.30;99.90;;;;;;6013550;23;20026;-88
2023/07/20 13:39:31;;;;;;;1.20;1.20;;;22.70;99.90;;;;;;6014511;23;20398;-89
2023/07/20 13:41:57;;;;;;;1.05;1.05;;;23.20;99.90;;;;;;6015705;23;20112;-88
2023/07/20 13:44:23;;;;;;;0.98;0.98;;;23.50;99.90;;;;;;6014038;23;20019;-85
2023/07/20 13:46:49;;;;;;;0.90;0.90;;;23.80;99.90;;;;;;6012961;23;20058;-86
2023/07/20 13:49:15;;;;;;;0.30;0.30;;;24.10;99.90;;;;;;6037957;23;20047;-87
2023/07/20 13:51:44;;;;;;;0.90;0.90;;;24.10;99.90;;;;;;6036359;23;20023;-87
2023/07/20 13:54:10;;;;;;;0.70;0.70;;;23.20;99.90;;;;;;6012861;23;20537;-88
2023/07/20 13:56:36;;;;;;;0.30;0.30;;;23.30;99.90;;;;;;6060086;23;20077;-90
2023/07/20 13:59:43;;;;;;;0.35;0.35;;;23.90;99.90;;;;;;6014965;23;20346;-87
2023/07/20 14:02:13;;;;;;;0.30;0.30;;;24.50;99.90;;;;;;6034937;23;20513;-90
2023/07/20 14:04:51;;;;;;;0.30;0.30;;;25.00;99.90;;;;;;6037753;23;20029;-90
2023/07/20 14:07:17;;;;;;;0.30;0.30;;;24.40;99.90;;;;;;6012984;23;20023;-88
2023/07/20 14:09:42;;;;;;;0.30;0.30;;;23.70;99.90;;;;;;6013073;23;20069;-89
2023/07/20 14:12:11;;;;;;;0.40;0.40;;;23.10;99.90;;;;;;6036414;23;20027;-88
2023/07/20 14:14:37;;;;;;;0.50;0.50;;;23.20;99.90;;;;;;6013440;23;20023;-89
2023/07/20 14:17:08;;;;;;;0.45;0.45;;;23.00;99.90;;;;;;6011625;23;20093;-87
2023/07/20 14:19:33;;;;;;;1.00;1.00;;;22.80;99.90;;;;;;6014011;23;20435;-88
2023/07/20 14:21:59;;;;;;;0.30;0.30;;;23.10;99.90;;;;;;6036361;23;20023;-89
2023/07/20 14:24:28;;;;;;;0.40;0.40;;;23.60;99.90;;;;;;6015069;23;20019;-88
2023/07/20 14:26:54;;;;;;;0.32;0.32;;;23.50;99.90;;;;;;6038239;23;20038;-90
2023/07/20 14:29:26;;;;;;;0.90;0.90;;;22.90;99.90;;;;;;6015211;23;20106;-88
2023/07/20 14:31:58;;;;;;;0.30;0.30;;;22.90;99.90;;;;;;6017036;23;20026;-93
2023/07/20 14:38:04;;;;;;;0.90;0.90;;;23.50;99.90;;;;;;6064469;23;20033;-89